createdAt,value
2019-03-23T00:36:52.044Z,16.25
2019-03-23T00:42:15.222Z,18.75
2019-03-23T00:44:50.524Z,21.07
2019-03-23T01:20:49.567Z,17.92
2019-03-23T01:25:45.868Z,19.45
2019-03-23T01:28:15.384Z,17.17
2019-03-23T01:30:44.158Z,17.37
2019-03-23T01:33:15.362Z,16.77
2019-03-23T01:35:44.134Z,20.50
2019-03-23T01:38:12.923Z,16.60
2019-03-23T01:40:43.224Z,14.05
2019-03-23T01:43:12.071Z,16.32
2019-03-23T01:45:40.735Z,16.02
2019-03-23T01:48:09.649Z,14.03
2019-03-23T01:59:24.358Z,16.65
2019-03-23T02:04:55.594Z,13.30
2019-03-23T02:07:27.527Z,16.00
2019-03-23T02:10:00.276Z,13.68
2019-03-23T02:27:51.239Z,18.90
2019-03-23T02:30:38.232Z,14.78
2019-03-23T02:38:59.809Z,14.73
2019-03-23T02:41:40.982Z,18.65
2019-03-23T02:55:26.483Z,20.97
2019-03-23T02:58:01.163Z,15.85
2019-03-23T03:00:34.239Z,22.22
2019-03-23T03:03:11.838Z,17.73
2019-03-23T03:06:00.152Z,19.23
2019-03-23T03:08:32.847Z,20.52
2019-03-23T03:16:46.940Z,17.12
2019-03-23T03:19:36.425Z,19.40
2019-03-23T03:22:10.437Z,18.42
2019-03-23T03:24:43.862Z,18.12
2019-03-23T03:27:30.638Z,15.23
2019-03-23T03:30:10.367Z,19.17
2019-03-23T03:32:48.081Z,20.20
2019-03-23T03:35:19.158Z,20.72
2019-03-23T03:43:42.506Z,22.32
2019-03-23T03:46:29.312Z,18.37
2019-03-23T03:49:12.245Z,20.92
2019-03-23T03:51:36.123Z,22.32
2019-03-23T03:54:09.744Z,20.70
2019-03-23T03:56:45.043Z,20.75
2019-03-23T03:59:16.569Z,20.77
2019-03-23T04:01:48.140Z,23.52
2019-03-23T04:04:23.505Z,26.48
2019-03-23T04:06:54.236Z,24.57
2019-03-23T04:09:27.275Z,29.82
2019-03-23T04:11:58.733Z,36.23
2019-03-23T04:14:33.439Z,29.15
2019-03-23T04:17:11.783Z,25.60
2019-03-23T04:19:42.041Z,26.97
2019-03-23T04:22:23.836Z,27.85
2019-03-23T04:24:54.773Z,28.67
2019-03-23T04:27:27.568Z,24.45
2019-03-23T04:29:59.762Z,30.35
2019-03-23T04:32:31.380Z,22.07
2019-03-23T04:35:02.293Z,25.12
2019-03-23T04:37:33.705Z,23.32
2019-03-23T04:40:06.893Z,30.92
2019-03-23T04:42:40.646Z,24.75
2019-03-23T04:45:12.752Z,25.95
2019-03-23T04:47:46.284Z,21.12
2019-03-23T04:50:24.963Z,24.20
2019-03-23T04:52:59.764Z,24.37
2019-03-23T04:55:34.278Z,19.48
2019-03-23T04:58:14.676Z,22.30
2019-03-23T05:00:43.457Z,26.55
2019-03-23T05:03:13.101Z,21.97
2019-03-23T05:05:41.894Z,22.45
2019-03-23T05:08:10.595Z,21.48
2019-03-23T05:10:39.780Z,23.07
2019-03-23T05:13:09.189Z,19.10
2019-03-23T05:15:37.971Z,23.77
2019-03-23T05:18:07.179Z,23.12
2019-03-23T05:20:36.056Z,21.57
2019-03-23T05:23:04.818Z,23.18
2019-03-23T05:28:11.338Z,22.25
2019-03-23T05:33:37.444Z,21.93
2019-03-23T05:36:15.411Z,25.70
2019-03-23T05:38:55.681Z,21.12
2019-03-23T05:44:19.564Z,19.60
2019-03-23T05:46:54.230Z,21.80
2019-03-23T05:49:46.087Z,17.23
2019-03-23T05:55:06.835Z,18.45
2019-03-23T05:57:35.390Z,22.77
2019-03-23T06:00:06.476Z,21.85
2019-03-23T06:02:35.049Z,18.10
2019-03-23T06:05:04.627Z,21.52
2019-03-23T06:07:33.203Z,18.87
2019-03-23T06:10:01.845Z,20.00
2019-03-23T06:12:30.635Z,16.93
2019-03-23T06:14:59.202Z,20.32
2019-03-23T06:17:27.753Z,20.25
2019-03-23T06:19:56.302Z,26.00
2019-03-23T06:22:24.883Z,19.15
2019-03-23T06:24:53.426Z,18.42
2019-03-23T06:27:22.335Z,25.15
2019-03-23T06:29:50.871Z,26.82
2019-03-23T06:32:38.888Z,23.80
2019-03-23T06:37:36.075Z,21.75
2019-03-23T06:40:10.450Z,24.20
2019-03-23T06:42:38.919Z,22.82
2019-03-23T06:45:10.171Z,24.60
2019-03-23T06:47:38.734Z,26.50
2019-03-23T06:50:09.788Z,20.52
2019-03-23T06:52:39.891Z,28.07
2019-03-23T06:55:09.515Z,21.87
2019-03-23T06:57:38.142Z,20.95
2019-03-23T07:00:30.319Z,21.10
2019-03-23T07:02:58.851Z,18.50
2019-03-23T07:05:27.404Z,23.38
2019-03-23T07:07:55.985Z,17.45
2019-03-23T07:10:24.518Z,17.82
2019-03-23T07:12:53.349Z,20.23
2019-03-23T07:15:21.979Z,24.87
2019-03-23T07:17:50.544Z,26.45
2019-03-23T07:20:19.097Z,20.62
2019-03-23T07:22:47.649Z,24.67
2019-03-23T07:25:16.299Z,21.97
2019-03-23T07:27:45.255Z,21.85
2019-03-23T07:30:18.379Z,21.60
2019-03-23T07:32:47.028Z,25.80
2019-03-23T07:35:15.749Z,19.40
2019-03-23T07:37:44.717Z,19.90
2019-03-23T07:40:14.110Z,23.47
2019-03-23T07:42:42.719Z,19.55
2019-03-23T07:45:13.555Z,21.17
2019-03-23T07:47:42.035Z,19.15
2019-03-23T07:50:12.946Z,21.95
2019-03-23T07:52:41.600Z,26.50
2019-03-23T07:55:31.011Z,24.20
2019-03-23T07:57:59.583Z,28.25
2019-03-23T08:00:28.315Z,24.52
2019-03-23T08:02:56.935Z,23.45
2019-03-23T08:05:25.848Z,22.95
2019-03-23T08:07:54.472Z,23.95
2019-03-23T08:10:31.555Z,23.25
2019-03-23T08:13:00.197Z,25.97
2019-03-23T08:15:29.387Z,30.35
2019-03-23T08:17:58.108Z,27.67
2019-03-23T08:20:26.733Z,27.02
2019-03-23T08:22:55.544Z,29.92
2019-03-23T08:25:24.127Z,38.80
2019-03-23T08:27:52.752Z,46.98
2019-03-23T08:30:21.291Z,57.95
2019-03-23T08:32:49.865Z,57.35
2019-03-23T08:35:22.344Z,59.38
2019-03-23T08:37:50.935Z,60.73
2019-03-23T08:40:20.121Z,65.03
2019-03-23T08:42:48.686Z,64.22
2019-03-23T08:45:17.266Z,66.25
2019-03-23T08:47:45.814Z,70.75
2019-03-23T08:50:14.491Z,71.25
2019-03-23T08:52:43.067Z,74.07
2019-03-23T08:55:11.761Z,74.53
2019-03-23T08:57:41.421Z,78.22
2019-03-23T09:00:11.203Z,78.65
2019-03-23T09:02:39.933Z,76.92
2019-03-23T09:05:08.720Z,79.87
2019-03-23T09:07:37.289Z,80.12
2019-03-23T09:10:10.187Z,81.28
2019-03-23T09:12:38.747Z,83.15
2019-03-23T09:15:09.112Z,81.92
2019-03-23T09:17:37.707Z,81.42
2019-03-23T09:20:09.056Z,77.90
2019-03-23T09:22:37.658Z,81.57
2019-03-23T09:25:07.022Z,73.62
2019-03-23T09:27:36.002Z,84.55
2019-03-23T09:30:10.205Z,77.42
2019-03-23T09:32:38.762Z,84.35
2019-03-23T09:35:07.662Z,80.47
2019-03-23T09:37:38.193Z,75.92
2019-03-23T09:40:10.953Z,76.65
2019-03-23T09:42:38.063Z,79.65
2019-03-23T09:45:08.223Z,76.85
2019-03-23T09:47:37.011Z,87.30
2019-03-23T09:50:08.153Z,75.90
2019-03-23T09:52:36.762Z,74.00
2019-03-23T09:55:06.851Z,76.33
2019-03-23T09:57:35.779Z,77.17
2019-03-23T10:00:07.531Z,76.75
2019-03-23T10:02:36.063Z,71.47
2019-03-23T10:05:06.752Z,79.97
2019-03-23T10:07:35.414Z,71.57
2019-03-23T10:10:04.907Z,68.92
2019-03-23T10:12:33.527Z,69.15
2019-03-23T10:15:03.182Z,68.67
2019-03-23T10:17:31.743Z,70.85
2019-03-23T10:20:00.309Z,66.75
2019-03-23T10:22:28.907Z,69.37
2019-03-23T10:24:57.392Z,72.08
2019-03-23T10:27:25.988Z,66.60
2019-03-23T10:29:54.553Z,65.42
2019-03-23T10:32:23.107Z,66.22
2019-03-23T10:34:51.773Z,65.97
2019-03-23T10:37:20.319Z,69.32
2019-03-23T10:39:48.913Z,67.32
2019-03-23T10:42:17.450Z,71.33
2019-03-23T10:44:46.327Z,64.95
2019-03-23T10:47:14.984Z,71.45
2019-03-23T10:49:43.526Z,67.50
2019-03-23T10:52:12.382Z,70.25
2019-03-23T10:54:41.270Z,71.65
2019-03-23T10:57:10.023Z,71.42
2019-03-23T10:59:38.714Z,81.82
2019-03-23T11:02:10.711Z,73.28
2019-03-23T11:04:39.528Z,73.85
2019-03-23T11:07:08.076Z,80.20
2019-03-23T11:09:36.669Z,78.15
2019-03-23T11:12:05.340Z,77.82
2019-03-23T11:14:33.893Z,71.28
2019-03-23T11:17:02.550Z,75.42
2019-03-23T11:19:31.106Z,83.45
2019-03-23T11:21:59.980Z,77.87
2019-03-23T11:24:28.573Z,76.05
2019-03-23T11:26:57.174Z,80.70
2019-03-23T11:29:25.788Z,80.20
2019-03-23T11:31:55.998Z,82.60
2019-03-23T11:34:44.015Z,78.90
2019-03-23T11:39:40.388Z,90.40
2019-03-23T11:42:09.322Z,82.67
2019-03-23T11:44:37.821Z,83.95
2019-03-23T11:47:06.519Z,84.58
2019-03-23T11:49:35.483Z,88.20
2019-03-23T11:52:04.130Z,94.30
2019-03-23T11:54:32.692Z,95.28
2019-03-23T11:57:01.511Z,96.30
2019-03-23T11:59:30.059Z,99.83
2019-03-23T12:01:58.660Z,95.42
2019-03-23T12:04:27.288Z,93.15
2019-03-23T12:06:55.955Z,93.67
2019-03-23T12:09:24.571Z,96.53
2019-03-23T12:11:53.243Z,101.97
2019-03-23T12:14:21.811Z,109.80
2019-03-23T12:16:50.393Z,112.03
2019-03-23T12:19:18.990Z,110.75
2019-03-23T12:21:47.592Z,112.60
2019-03-23T12:24:16.114Z,113.00
2019-03-23T12:26:44.614Z,112.88
2019-03-23T12:29:13.238Z,118.90
2019-03-23T12:31:41.904Z,110.55
2019-03-23T12:34:10.457Z,116.28
2019-03-23T12:36:39.023Z,121.30
2019-03-23T12:39:07.659Z,120.37
2019-03-23T12:41:36.239Z,113.72
2019-03-23T12:44:04.890Z,115.00
2019-03-23T12:46:33.455Z,118.57
2019-03-23T12:49:02.287Z,123.38
2019-03-23T12:51:32.333Z,118.42
2019-03-23T12:54:00.954Z,122.62
2019-03-23T12:56:29.537Z,117.60
2019-03-23T12:58:58.160Z,112.20
2019-03-23T13:01:26.743Z,117.93
2019-03-23T13:03:55.300Z,128.62
2019-03-23T13:06:23.850Z,121.72
2019-03-23T13:08:52.427Z,118.62
2019-03-23T13:11:24.661Z,127.05
2019-03-23T13:13:52.210Z,118.35
2019-03-23T13:16:20.790Z,120.40
2019-03-23T13:18:49.343Z,125.05
2019-03-23T13:21:17.901Z,121.37
2019-03-23T13:23:46.481Z,116.53
2019-03-23T13:26:15.328Z,121.45
2019-03-23T13:28:43.883Z,124.65
2019-03-23T13:31:12.438Z,121.82
2019-03-23T13:33:41.021Z,110.20
2019-03-23T13:36:09.994Z,110.63
2019-03-23T13:38:38.615Z,110.42
2019-03-23T13:41:07.207Z,118.65
2019-03-23T13:43:35.763Z,112.55
2019-03-23T13:46:04.314Z,125.30
2019-03-23T13:48:32.824Z,117.05
2019-03-23T13:51:01.446Z,117.72
2019-03-23T13:53:30.050Z,125.78
2019-03-23T13:55:59.075Z,112.72
2019-03-23T13:58:27.622Z,118.53
2019-03-23T14:00:56.259Z,124.75
2019-03-23T14:03:24.906Z,110.17
2019-03-23T14:05:53.512Z,113.15
2019-03-23T14:08:22.142Z,108.75
2019-03-23T14:10:50.717Z,104.78
2019-03-23T14:13:19.275Z,102.38
2019-03-23T14:15:47.892Z,100.75
2019-03-23T14:18:17.476Z,100.75
2019-03-23T14:20:46.303Z,108.65
2019-03-23T14:23:14.843Z,96.75
2019-03-23T14:25:43.467Z,100.33
2019-03-23T14:28:12.049Z,101.50
2019-03-23T14:30:40.607Z,77.92
2019-03-23T14:33:09.212Z,80.70
2019-03-23T14:35:37.762Z,77.32
2019-03-23T14:38:06.307Z,83.85
2019-03-23T14:40:34.883Z,83.80
2019-03-23T14:43:03.448Z,69.27
2019-03-23T14:45:32.079Z,72.35
2019-03-23T14:48:00.663Z,77.15
2019-03-23T14:50:29.291Z,72.20
2019-03-23T14:52:57.832Z,70.70
2019-03-23T14:55:26.486Z,74.25
2019-03-23T14:57:55.354Z,69.77
2019-03-23T15:00:32.185Z,68.10
2019-03-23T15:03:00.809Z,72.78
2019-03-23T15:05:29.434Z,75.35
2019-03-23T15:07:58.199Z,69.65
2019-03-23T15:10:27.419Z,70.70
2019-03-23T15:12:56.466Z,70.17
2019-03-23T15:15:25.096Z,70.25
2019-03-23T15:17:54.500Z,72.95
2019-03-23T15:20:23.119Z,72.97
2019-03-23T15:22:52.034Z,79.45
2019-03-23T15:25:20.579Z,74.42
2019-03-23T15:27:49.126Z,77.65
2019-03-23T15:30:17.763Z,64.80
2019-03-23T15:32:46.370Z,77.42
2019-03-23T15:35:15.003Z,77.17
2019-03-23T15:37:43.700Z,69.87
2019-03-23T15:40:12.740Z,72.95
2019-03-23T15:42:41.733Z,73.52
2019-03-23T15:45:10.919Z,67.50
2019-03-23T15:47:39.499Z,68.02
2019-03-23T15:50:09.312Z,75.03
2019-03-23T15:52:38.037Z,73.67
2019-03-23T15:55:07.055Z,70.20
2019-03-23T15:57:36.697Z,68.45
2019-03-23T16:00:08.309Z,68.28
2019-03-23T16:02:36.938Z,66.72
2019-03-23T16:05:07.259Z,70.90
2019-03-23T16:07:36.335Z,74.40
2019-03-23T16:10:07.243Z,69.10
2019-03-23T16:12:37.786Z,73.57
2019-03-23T16:15:11.455Z,74.17
2019-03-23T16:17:40.086Z,71.70
2019-03-23T16:20:10.864Z,75.65
2019-03-23T16:22:39.511Z,70.60
2019-03-23T16:25:11.912Z,71.53
2019-03-23T16:27:40.466Z,62.65
2019-03-23T16:30:11.382Z,64.40
2019-03-23T16:32:39.951Z,68.90
2019-03-23T16:35:09.139Z,70.28
2019-03-23T16:37:37.705Z,69.22
2019-03-23T16:40:08.615Z,70.65
2019-03-23T16:42:44.549Z,69.50
2019-03-23T16:45:09.620Z,69.82
2019-03-23T16:47:38.309Z,65.80
2019-03-23T16:50:07.904Z,67.37
2019-03-23T16:52:38.214Z,64.03
2019-03-23T16:55:11.655Z,60.85
2019-03-23T16:57:40.559Z,63.80
2019-03-23T17:00:11.745Z,66.70
2019-03-23T17:02:40.359Z,62.98
2019-03-23T17:05:09.376Z,74.27
2019-03-23T17:07:37.929Z,67.78
2019-03-23T17:10:06.991Z,72.15
2019-03-23T17:12:35.731Z,72.53
2019-03-23T17:15:09.071Z,73.72
2019-03-23T17:17:37.954Z,70.35
2019-03-23T17:20:06.758Z,75.87
2019-03-23T17:22:35.475Z,69.32
2019-03-23T17:25:06.570Z,73.37
2019-03-23T17:27:35.104Z,76.28
2019-03-23T17:30:05.392Z,70.92
2019-03-23T17:32:34.179Z,75.28
2019-03-23T17:35:03.003Z,79.03
2019-03-23T17:37:31.562Z,80.90
2019-03-23T17:40:00.360Z,74.30
2019-03-23T17:42:28.908Z,73.72
2019-03-23T17:44:57.827Z,77.80
2019-03-23T17:47:26.340Z,74.45
2019-03-23T17:49:57.218Z,77.17
2019-03-23T17:52:25.570Z,78.65
2019-03-23T17:54:54.189Z,74.32
2019-03-23T17:57:23.218Z,78.02
2019-03-23T17:59:52.116Z,79.20
2019-03-23T18:02:20.978Z,86.55
2019-03-23T18:04:49.560Z,82.72
2019-03-23T18:07:18.232Z,78.50
2019-03-23T20:01:18.137Z,88.80
2019-03-23T23:40:58.553Z,91.75
2019-03-23T23:43:29.500Z,92.42
2019-03-23T23:46:05.737Z,91.30
2019-03-23T23:48:37.670Z,89.72
2019-03-23T23:51:13.685Z,88.05
